Time;durP1;ratioP1;P1;durP2;ratioP2;P2;SDS_P1;SDS_P2;PMS_P1;PMS_P2;Temp;Humidity;BMP_temperature;BMP_pressure;BME280_temperature;BME280_humidity;BME280_pressure;Samples;Min_cycle;Max_cycle;Signal;HPM_P1;HPM_P2
2022/03/18 00:01:50;;;;;;;45.70;28.83;;;3.20;99.90;;;;;;5073398;28;20029;-56
2022/03/18 00:04:16;;;;;;;47.20;28.98;;;3.20;99.90;;;;;;5073329;28;20024;-57
2022/03/18 00:06:42;;;;;;;43.35;28.80;;;3.20;99.90;;;;;;5072880;28;20107;-58
2022/03/18 00:09:07;;;;;;;49.28;30.55;;;3.20;99.90;;;;;;5073624;28;20104;-56
2022/03/18 00:11:33;;;;;;;43.03;28.88;;;3.20;99.90;;;;;;5073067;28;20056;-57
2022/03/18 00:14:02;;;;;;;44.53;29.17;;;3.20;99.90;;;;;;5073169;28;20490;-50
2022/03/18 00:16:28;;;;;;;48.40;28.42;;;3.20;99.90;;;;;;5073117;28;20055;-53
2022/03/18 00:18:54;;;;;;;47.83;28.40;;;3.10;99.90;;;;;;5072713;28;20067;-55
2022/03/18 00:21:21;;;;;;;45.83;28.30;;;3.00;99.90;;;;;;5073240;28;20020;-51
2022/03/18 00:23:47;;;;;;;47.45;29.13;;;3.00;99.90;;;;;;5072749;28;20157;-53
2022/03/18 00:26:13;;;;;;;46.72;29.85;;;3.00;99.90;;;;;;5072851;28;20020;-55
2022/03/18 00:28:39;;;;;;;51.47;30.42;;;3.00;99.90;;;;;;5072964;28;20417;-54
2022/03/18 00:31:08;;;;;;;45.95;28.98;;;3.00;99.90;;;;;;5073157;28;20051;-56
2022/03/18 00:33:34;;;;;;;48.63;30.05;;;3.00;99.90;;;;;;5072737;28;20024;-52
2022/03/18 00:36:00;;;;;;;43.88;28.08;;;3.00;99.90;;;;;;5072749;28;20444;-52
2022/03/18 00:38:27;;;;;;;46.28;28.27;;;3.00;99.90;;;;;;5072486;28;20056;-56
2022/03/18 00:40:56;;;;;;;41.97;28.48;;;3.00;99.90;;;;;;5072441;28;20115;-55
2022/03/18 00:43:22;;;;;;;56.42;29.85;;;3.00;99.90;;;;;;5072707;28;20610;-55
2022/03/18 00:45:48;;;;;;;44.08;27.95;;;3.00;99.90;;;;;;5070851;28;20070;-54
2022/03/18 00:53:43;;;;;;;40.55;27.15;;;2.80;99.90;;;;;;5071432;28;20060;-54
2022/03/18 00:56:09;;;;;;;45.72;29.40;;;2.80;99.90;;;;;;5071415;28;20415;-57
2022/03/18 00:58:35;;;;;;;48.95;29.05;;;2.70;99.90;;;;;;5071888;28;20029;-56
2022/03/18 01:01:01;;;;;;;47.25;28.27;;;2.60;99.90;;;;;;5071191;28;20025;-53
2022/03/18 01:03:27;;;;;;;41.85;27.65;;;2.60;99.90;;;;;;5071590;28;20085;-53
2022/03/18 01:05:52;;;;;;;47.28;30.63;;;2.50;99.90;;;;;;5071349;28;20036;-55
2022/03/18 01:08:18;;;;;;;45.22;28.45;;;2.40;99.90;;;;;;5071569;28;20027;-55
2022/03/18 01:10:44;;;;;;;45.80;28.92;;;2.40;99.90;;;;;;5070409;28;20059;-56
2022/03/18 01:13:10;;;;;;;45.30;30.27;;;2.20;99.90;;;;;;5071246;28;20371;-58
2022/03/18 01:15:36;;;;;;;42.22;28.05;;;2.30;99.90;;;;;;5071201;28;20036;-58
2022/03/18 01:18:02;;;;;;;48.35;30.20;;;2.30;99.90;;;;;;5070955;28;20031;-55
2022/03/18 01:20:28;;;;;;;50.58;30.38;;;2.30;99.90;;;;;;5071275;28;20023;-56
2022/03/18 01:22:54;;;;;;;52.15;28.75;;;2.30;99.90;;;;;;5070979;28;20025;-52
2022/03/18 01:25:20;;;;;;;44.80;28.60;;;2.30;99.90;;;;;;5071089;28;20454;-57
2022/03/18 01:27:46;;;;;;;45.05;29.38;;;2.30;99.90;;;;;;5071428;28;20020;-57
2022/03/18 01:30:13;;;;;;;46.22;28.75;;;2.30;99.90;;;;;;5071922;28;20033;-56
2022/03/18 01:32:40;;;;;;;43.72;29.25;;;2.30;99.90;;;;;;5070137;28;20029;-57
2022/03/18 01:35:06;;;;;;;48.45;30.00;;;2.20;99.90;;;;;;5070249;28;20540;-58
2022/03/18 01:37:32;;;;;;;53.28;32.13;;;2.20;99.90;;;;;;5071376;28;20111;-55
2022/03/18 01:39:57;;;;;;;44.83;29.25;;;2.20;99.90;;;;;;5070922;28;20127;-55
2022/03/18 01:42:23;;;;;;;48.55;29.85;;;2.20;99.90;;;;;;5069552;28;20053;-57
2022/03/18 01:44:49;;;;;;;52.35;31.17;;;2.20;99.90;;;;;;5070740;28;20024;-58
2022/03/18 01:47:15;;;;;;;43.67;29.50;;;2.10;99.90;;;;;;5071353;28;20013;-57
2022/03/18 01:49:41;;;;;;;45.25;28.58;;;2.20;99.90;;;;;;5071248;28;20431;-55
2022/03/18 01:52:08;;;;;;;46.83;30.67;;;2.20;99.90;;;;;;5070309;28;20452;-54
2022/03/18 01:54:49;;;;;;;51.95;31.42;;;2.20;99.90;;;;;;5069808;28;20028;-57
2022/03/18 01:57:21;;;;;;;55.65;31.58;;;2.10;99.90;;;;;;5071451;28;20365;-57
2022/03/18 01:59:51;;;;;;;48.55;31.52;;;2.10;99.90;;;;;;5070192;28;20533;-55
2022/03/18 02:02:17;;;;;;;50.88;30.67;;;2.10;99.90;;;;;;5069824;28;20028;-57
2022/03/18 02:04:44;;;;;;;46.85;30.83;;;2.20;99.90;;;;;;5071119;28;20097;-54
2022/03/18 02:07:11;;;;;;;50.83;30.85;;;2.20;99.90;;;;;;5071205;28;20025;-53
2022/03/18 02:09:37;;;;;;;49.45;31.13;;;2.20;99.90;;;;;;5070934;28;20073;-56
2022/03/18 02:12:04;;;;;;;50.17;30.10;;;2.20;99.90;;;;;;5071278;28;20081;-55
2022/03/18 02:14:30;;;;;;;52.75;31.13;;;2.20;99.90;;;;;;5071366;28;20062;-52
2022/03/18 02:16:56;;;;;;;55.75;32.30;;;2.30;99.90;;;;;;5070990;28;20017;-56
2022/03/18 02:19:21;;;;;;;43.50;29.10;;;2.30;99.90;;;;;;5070633;28;20031;-54
2022/03/18 02:21:52;;;;;;;53.70;30.23;;;2.30;99.90;;;;;;5069489;28;20025;-57
2022/03/18 02:24:18;;;;;;;47.42;29.95;;;2.20;99.90;;;;;;5069965;28;20102;-53
2022/03/18 02:26:47;;;;;;;50.92;30.95;;;2.30;99.90;;;;;;5069494;28;20467;-56
2022/03/18 02:29:13;;;;;;;51.63;31.40;;;2.30;99.90;;;;;;5070298;28;20036;-57
2022/03/18 02:31:39;;;;;;;48.55;30.65;;;2.30;99.90;;;;;;5069576;28;20024;-55
2022/03/18 02:34:05;;;;;;;47.80;30.65;;;2.30;99.90;;;;;;5069827;28;20709;-54
2022/03/18 02:36:30;;;;;;;44.10;30.00;;;2.30;99.90;;;;;;5068674;28;20037;-58
2022/03/18 02:38:56;;;;;;;46.08;30.70;;;2.30;99.90;;;;;;5070713;28;20460;-55
2022/03/18 02:41:22;;;;;;;50.80;31.50;;;2.30;99.90;;;;;;5070557;28;20487;-55
2022/03/18 02:43:47;;;;;;;47.47;31.15;;;2.20;99.90;;;;;;5070971;28;20033;-57
2022/03/18 02:46:15;;;;;;;54.58;30.83;;;2.20;99.90;;;;;;5069898;28;20531;-58
2022/03/18 02:48:41;;;;;;;48.85;31.30;;;2.10;99.90;;;;;;5070969;28;20063;-54
2022/03/18 02:51:07;;;;;;;51.00;31.83;;;2.10;99.90;;;;;;5071148;28;20025;-57
2022/03/18 02:53:33;;;;;;;48.47;30.83;;;2.10;99.90;;;;;;5071058;28;20032;-56
2022/03/18 02:55:59;;;;;;;52.28;33.20;;;2.10;99.90;;;;;;5070949;28;20029;-54
2022/03/18 02:58:25;;;;;;;48.70;31.30;;;2.10;99.90;;;;;;5069864;28;20027;-55
2022/03/18 03:00:51;;;;;;;50.50;31.23;;;2.10;99.90;;;;;;5070086;28;20107;-57
2022/03/18 03:03:17;;;;;;;49.28;30.75;;;2.10;99.90;;;;;;5070948;28;20039;-57
2022/03/18 03:08:28;;;;;;;48.30;31.50;;;2.00;99.90;;;;;;5070639;28;20549;-56
2022/03/18 03:10:54;;;;;;;60.92;33.97;;;1.90;99.90;;;;;;5072434;28;20036;-56
2022/03/18 03:13:20;;;;;;;50.00;32.58;;;1.80;99.90;;;;;;5074320;28;20033;-57
2022/03/18 03:15:46;;;;;;;55.17;33.63;;;1.90;99.90;;;;;;5074339;28;20410;-56
2022/03/18 03:18:11;;;;;;;54.40;32.80;;;1.90;99.90;;;;;;5073033;28;20059;-58
2022/03/18 03:20:37;;;;;;;56.83;34.10;;;1.90;99.90;;;;;;5074232;28;20025;-55
2022/03/18 03:23:03;;;;;;;51.15;32.75;;;1.90;99.90;;;;;;5074101;28;20085;-55
2022/03/18 03:25:28;;;;;;;48.05;30.52;;;2.00;99.90;;;;;;5074033;28;20024;-55
2022/03/18 03:27:54;;;;;;;54.85;32.75;;;2.00;99.90;;;;;;5073987;28;20024;-55
2022/03/18 03:30:22;;;;;;;50.83;32.13;;;2.10;99.90;;;;;;5074149;28;20036;-58
2022/03/18 03:32:48;;;;;;;55.78;31.38;;;2.00;99.90;;;;;;5074036;28;20024;-57
2022/03/18 03:35:15;;;;;;;49.05;32.47;;;2.10;99.90;;;;;;5073963;28;20040;-55
2022/03/18 03:37:42;;;;;;;61.08;35.58;;;2.00;99.90;;;;;;5073908;28;20044;-55
2022/03/18 03:40:08;;;;;;;60.25;36.47;;;1.90;99.90;;;;;;5073480;28;20024;-56
2022/03/18 03:42:34;;;;;;;56.83;36.95;;;1.90;99.90;;;;;;5073434;28;20067;-57
2022/03/18 03:45:00;;;;;;;49.65;32.13;;;1.80;99.90;;;;;;5073450;28;20066;-54
2022/03/18 03:47:26;;;;;;;50.25;32.15;;;1.80;99.90;;;;;;5073810;28;20024;-54
2022/03/18 03:49:51;;;;;;;53.70;31.50;;;1.70;99.90;;;;;;5073511;28;20024;-57
2022/03/18 03:52:17;;;;;;;51.78;29.75;;;1.70;99.90;;;;;;5073456;28;20139;-56
2022/03/18 03:54:43;;;;;;;53.13;31.67;;;1.60;99.90;;;;;;5073478;28;20107;-57
2022/03/18 03:57:08;;;;;;;56.38;33.75;;;1.60;99.90;;;;;;5073320;28;20033;-55
2022/03/18 03:59:36;;;;;;;55.47;32.55;;;1.60;99.90;;;;;;5073319;28;20028;-56
2022/03/18 04:02:05;;;;;;;57.90;33.97;;;1.60;99.90;;;;;;5073160;28;20478;-55
2022/03/18 04:04:32;;;;;;;60.35;33.28;;;1.60;99.90;;;;;;5073052;28;20044;-58
2022/03/18 04:06:57;;;;;;;54.78;32.13;;;1.70;99.90;;;;;;5071742;28;20116;-58
2022/03/18 04:09:23;;;;;;;56.63;32.90;;;1.70;99.90;;;;;;5072469;28;20146;-58
2022/03/18 04:11:48;;;;;;;61.28;34.45;;;1.60;99.90;;;;;;5072884;28;20103;-59
2022/03/18 04:14:14;;;;;;;51.97;32.83;;;1.70;99.90;;;;;;5071811;28;20561;-54
2022/03/18 04:16:40;;;;;;;55.85;35.22;;;1.70;99.90;;;;;;5073077;28;20028;-58
2022/03/18 04:19:06;;;;;;;55.40;34.50;;;1.70;99.90;;;;;;5073098;28;20570;-55
2022/03/18 04:21:31;;;;;;;51.20;32.50;;;1.70;99.90;;;;;;5071295;28;20383;-58
2022/03/18 04:23:57;;;;;;;50.00;31.58;;;1.70;99.90;;;;;;5072643;28;20548;-58
2022/03/18 04:26:23;;;;;;;52.17;33.17;;;1.70;99.90;;;;;;5073244;28;20112;-57
2022/03/18 04:28:48;;;;;;;54.72;34.83;;;1.70;99.90;;;;;;5072817;28;20071;-58
2022/03/18 04:31:26;;;;;;;66.28;33.28;;;1.70;99.90;;;;;;5072974;28;20028;-57
2022/03/18 04:33:51;;;;;;;52.20;32.25;;;1.70;99.90;;;;;;5072424;28;20034;-55
2022/03/18 04:36:17;;;;;;;54.22;33.83;;;1.70;99.90;;;;;;5073080;28;20483;-56
2022/03/18 04:38:43;;;;;;;49.55;32.75;;;1.80;99.90;;;;;;5071110;28;20031;-52
2022/03/18 04:41:08;;;;;;;58.28;34.05;;;1.80;99.90;;;;;;5072704;28;20505;-56
2022/03/18 04:43:34;;;;;;;61.40;33.28;;;1.80;99.90;;;;;;5072496;28;20055;-56
2022/03/18 04:46:00;;;;;;;59.20;35.33;;;1.80;99.90;;;;;;5072553;28;20028;-56
2022/03/18 04:48:25;;;;;;;62.47;36.10;;;1.90;99.90;;;;;;5071360;28;20036;-55
2022/03/18 04:50:51;;;;;;;59.80;37.33;;;1.90;99.90;;;;;;5071636;28;20029;-57
2022/03/18 04:53:17;;;;;;;61.80;36.25;;;1.80;99.90;;;;;;5072228;28;20044;-54
2022/03/18 04:55:43;;;;;;;55.28;35.45;;;1.80;99.90;;;;;;5072162;28;20054;-55
2022/03/18 04:58:08;;;;;;;52.70;32.60;;;1.80;99.90;;;;;;5072437;28;20043;-56
2022/03/18 05:00:35;;;;;;;58.42;37.42;;;1.80;99.90;;;;;;5072151;28;20044;-57
2022/03/18 05:03:01;;;;;;;57.92;36.38;;;1.80;99.90;;;;;;5071986;28;20499;-57
2022/03/18 05:05:27;;;;;;;61.58;36.13;;;1.80;99.90;;;;;;5072347;28;20029;-56
2022/03/18 05:07:53;;;;;;;60.25;34.45;;;1.80;99.90;;;;;;5071998;28;20020;-57
2022/03/18 05:10:19;;;;;;;70.15;40.25;;;1.70;99.90;;;;;;5072175;28;20086;-56
2022/03/18 05:12:46;;;;;;;76.38;40.40;;;1.70;99.90;;;;;;5070686;28;20380;-57
2022/03/18 05:15:12;;;;;;;95.53;48.00;;;1.60;99.90;;;;;;5072044;28;20149;-58
2022/03/18 05:17:39;;;;;;;67.70;40.33;;;1.60;99.90;;;;;;5071705;28;20074;-57
2022/03/18 05:20:07;;;;;;;93.60;46.25;;;1.50;99.90;;;;;;5072045;28;20423;-56
2022/03/18 05:22:34;;;;;;;109.65;54.80;;;1.50;99.90;;;;;;5071838;28;20133;-58
2022/03/18 05:25:00;;;;;;;97.25;48.95;;;1.50;99.90;;;;;;5071805;28;20028;-57
2022/03/18 05:27:26;;;;;;;90.85;47.55;;;1.60;99.90;;;;;;5071819;28;20017;-57
2022/03/18 05:29:52;;;;;;;116.75;53.63;;;1.60;99.90;;;;;;5071087;28;20483;-58
2022/03/18 05:32:19;;;;;;;111.65;52.53;;;1.60;99.90;;;;;;5070608;28;20033;-54
2022/03/18 05:34:45;;;;;;;154.65;65.75;;;1.60;99.90;;;;;;5069064;28;20514;-56
2022/03/18 05:37:11;;;;;;;209.30;80.88;;;1.60;99.90;;;;;;5070567;28;20028;-55
2022/03/18 05:39:37;;;;;;;532.38;185.90;;;1.60;99.90;;;;;;5070568;28;20103;-51
2022/03/18 05:42:04;;;;;;;255.10;96.32;;;1.70;99.90;;;;;;5071438;28;20150;-52
2022/03/18 05:44:30;;;;;;;212.77;86.00;;;1.70;99.90;;;;;;5070802;28;20044;-51
2022/03/18 05:46:56;;;;;;;327.27;109.97;;;1.70;99.90;;;;;;5070467;28;20110;-53
2022/03/18 05:49:22;;;;;;;505.08;172.07;;;1.80;99.90;;;;;;5070733;28;20064;-54
2022/03/18 05:51:48;;;;;;;228.77;88.35;;;1.80;99.90;;;;;;5071167;28;20434;-56
2022/03/18 05:54:14;;;;;;;145.20;64.10;;;1.80;99.90;;;;;;5071653;28;20024;-52
2022/03/18 05:56:53;;;;;;;95.63;47.45;;;1.90;99.90;;;;;;5071482;28;20028;-57
2022/03/18 05:59:23;;;;;;;93.50;46.55;;;2.10;99.90;;;;;;5071154;28;20029;-54
2022/03/18 06:01:49;;;;;;;70.00;42.55;;;2.20;99.90;;;;;;5071160;28;20032;-58
2022/03/18 06:04:15;;;;;;;63.50;37.47;;;2.40;99.90;;;;;;5071381;28;20025;-54
2022/03/18 06:06:43;;;;;;;62.95;36.80;;;2.50;99.90;;;;;;5071228;28;20090;-58
2022/03/18 06:11:54;;;;;;;60.90;38.30;;;2.80;99.90;;;;;;5071154;28;20050;-57
2022/03/18 06:14:27;;;;;;;61.00;37.28;;;3.00;99.90;;;;;;5071149;28;20045;-54
2022/03/18 06:16:56;;;;;;;66.95;37.00;;;3.10;99.90;;;;;;5071356;28;20036;-55
2022/03/18 06:19:22;;;;;;;61.67;36.78;;;3.30;99.90;;;;;;5071347;28;20035;-57
2022/03/18 06:21:49;;;;;;;56.42;35.42;;;3.40;99.90;;;;;;5071006;28;20082;-56
2022/03/18 06:24:15;;;;;;;62.55;38.08;;;3.50;99.90;;;;;;5069923;28;20032;-57
2022/03/18 06:26:41;;;;;;;63.05;37.25;;;3.60;99.90;;;;;;5071194;28;20479;-55
2022/03/18 06:29:08;;;;;;;63.88;36.67;;;3.70;99.90;;;;;;5069918;28;20025;-56
2022/03/18 06:31:34;;;;;;;60.90;37.08;;;3.70;99.90;;;;;;5071214;28;20059;-57
2022/03/18 06:34:00;;;;;;;60.22;36.80;;;3.80;99.90;;;;;;5071294;28;20070;-53
2022/03/18 06:36:27;;;;;;;53.80;35.08;;;3.90;99.90;;;;;;5071233;28;20024;-55
2022/03/18 06:38:53;;;;;;;59.90;37.63;;;4.00;99.90;;;;;;5069837;28;20093;-57
2022/03/18 06:41:19;;;;;;;59.42;37.10;;;4.00;99.90;;;;;;5069122;28;20037;-57
2022/03/18 06:43:46;;;;;;;53.15;35.38;;;4.00;99.90;;;;;;5070779;28;20024;-58
2022/03/18 06:46:12;;;;;;;63.83;38.15;;;4.20;99.90;;;;;;5073238;28;20360;-58
2022/03/18 06:48:38;;;;;;;54.67;35.55;;;4.20;99.90;;;;;;5073524;28;20025;-58
2022/03/18 06:51:03;;;;;;;67.35;38.33;;;4.40;99.90;;;;;;5073615;28;20467;-58
2022/03/18 06:53:29;;;;;;;58.30;35.70;;;4.50;99.90;;;;;;5074785;28;20040;-56
2022/03/18 06:55:55;;;;;;;58.30;35.35;;;4.50;99.90;;;;;;5074297;28;20086;-55
2022/03/18 06:58:20;;;;;;;55.50;36.92;;;4.60;99.90;;;;;;5074252;28;20479;-54
2022/03/18 07:00:46;;;;;;;53.00;35.80;;;4.70;99.90;;;;;;5074431;28;20036;-55
2022/03/18 07:03:13;;;;;;;57.65;38.33;;;4.90;99.90;;;;;;5074596;28;20020;-53
2022/03/18 07:05:39;;;;;;;56.90;37.85;;;4.80;99.90;;;;;;5074554;28;20078;-55
2022/03/18 07:08:05;;;;;;;56.13;36.38;;;4.90;99.90;;;;;;5074376;28;20028;-57
2022/03/18 07:10:31;;;;;;;54.88;36.50;;;5.00;99.90;;;;;;5074543;28;20028;-56
2022/03/18 07:12:57;;;;;;;58.38;35.58;;;4.90;99.90;;;;;;5074090;28;20046;-57
2022/03/18 07:15:22;;;;;;;53.67;35.40;;;5.10;99.90;;;;;;5074370;28;20028;-54
2022/03/18 07:18:01;;;;;;;55.88;34.20;;;5.10;99.90;;;;;;5074247;28;20099;-56
2022/03/18 07:20:32;;;;;;;59.15;32.85;;;5.00;99.90;;;;;;5074337;28;20028;-56
2022/03/18 07:23:15;;;;;;;52.70;33.63;;;5.20;99.90;;;;;;5074007;28;20456;-55
2022/03/18 07:25:47;;;;;;;61.83;34.40;;;5.30;99.90;;;;;;5074043;28;20016;-56
2022/03/18 07:28:15;;;;;;;59.05;33.50;;;5.30;99.90;;;;;;5074055;28;20024;-57
2022/03/18 07:30:42;;;;;;;52.25;34.15;;;5.20;99.90;;;;;;5074005;28;20036;-57
2022/03/18 07:33:08;;;;;;;55.40;35.25;;;5.40;99.90;;;;;;5074064;28;20020;-57
2022/03/18 07:35:35;;;;;;;52.10;34.10;;;5.40;99.90;;;;;;5073617;28;20028;-58
2022/03/18 07:38:03;;;;;;;50.15;34.10;;;5.40;99.90;;;;;;5074059;28;20052;-57
2022/03/18 07:40:29;;;;;;;51.45;34.65;;;5.50;99.90;;;;;;5074061;28;20051;-57
2022/03/18 07:42:58;;;;;;;53.25;34.22;;;5.50;99.90;;;;;;5073739;28;20025;-57
2022/03/18 07:45:28;;;;;;;48.53;35.00;;;5.60;99.90;;;;;;5073896;28;20020;-57
2022/03/18 07:47:55;;;;;;;47.85;31.92;;;5.60;99.90;;;;;;5073635;28;20032;-58
2022/03/18 07:50:23;;;;;;;47.53;32.95;;;5.70;99.90;;;;;;5073924;28;20095;-57
2022/03/18 07:52:50;;;;;;;49.33;33.38;;;5.70;99.90;;;;;;5073644;28;20063;-57
2022/03/18 07:55:21;;;;;;;50.53;33.65;;;5.90;99.90;;;;;;5073771;28;20472;-58
2022/03/18 07:57:48;;;;;;;52.00;35.55;;;6.00;99.90;;;;;;5073592;28;20062;-58
2022/03/18 08:00:15;;;;;;;47.88;33.45;;;6.00;99.90;;;;;;5073495;28;20024;-57
2022/03/18 08:02:42;;;;;;;47.65;33.25;;;6.20;99.90;;;;;;5073431;28;20066;-57
2022/03/18 08:05:09;;;;;;;44.35;31.95;;;6.10;99.90;;;;;;5073621;28;20432;-57
2022/03/18 08:07:35;;;;;;;48.72;32.20;;;6.20;99.90;;;;;;5073454;28;20023;-57
2022/03/18 08:10:02;;;;;;;54.75;35.38;;;6.30;99.90;;;;;;5073294;28;20024;-58
2022/03/18 08:12:28;;;;;;;49.30;34.10;;;6.30;99.90;;;;;;5073158;28;20048;-58
2022/03/18 08:14:55;;;;;;;50.75;34.55;;;6.30;99.90;;;;;;5073100;28;20049;-58
2022/03/18 08:17:21;;;;;;;44.13;31.35;;;6.30;99.90;;;;;;5071926;28;20602;-59
2022/03/18 08:19:47;;;;;;;52.05;34.38;;;6.50;99.90;;;;;;5073048;28;20039;-58
2022/03/18 08:22:12;;;;;;;48.08;33.42;;;6.70;99.90;;;;;;5073047;28;20057;-58
2022/03/18 08:24:38;;;;;;;48.75;32.95;;;6.70;99.90;;;;;;5072868;28;20021;-58
2022/03/18 08:27:06;;;;;;;49.28;33.58;;;6.70;99.90;;;;;;5073099;28;20395;-58
2022/03/18 08:29:32;;;;;;;47.33;33.45;;;6.80;99.90;;;;;;5072296;28;20020;-59
2022/03/18 08:31:58;;;;;;;44.38;30.00;;;6.80;99.90;;;;;;5072532;28;20020;-58
2022/03/18 08:34:23;;;;;;;52.45;33.00;;;6.90;99.90;;;;;;5072718;28;20410;-59
2022/03/18 08:36:49;;;;;;;44.88;31.33;;;6.90;99.90;;;;;;5072712;28;20047;-58
2022/03/18 08:39:15;;;;;;;43.70;29.02;;;6.80;99.90;;;;;;5072687;28;20028;-58
2022/03/18 08:41:41;;;;;;;45.95;30.83;;;7.30;99.90;;;;;;5072545;28;20039;-58
2022/03/18 08:44:06;;;;;;;50.88;32.60;;;7.20;99.90;;;;;;5072180;28;20033;-59
2022/03/18 08:46:34;;;;;;;52.10;32.25;;;7.20;99.90;;;;;;5072531;28;20154;-57
2022/03/18 08:49:00;;;;;;;43.20;30.17;;;7.10;99.90;;;;;;5072605;28;20111;-58
2022/03/18 08:51:25;;;;;;;48.22;31.52;;;7.20;99.90;;;;;;5072658;28;20424;-58
2022/03/18 08:53:51;;;;;;;53.20;31.77;;;7.20;99.90;;;;;;5072213;28;20036;-58
2022/03/18 08:56:16;;;;;;;48.60;30.88;;;7.10;99.90;;;;;;5072480;28;20031;-58
2022/03/18 08:58:42;;;;;;;43.03;31.40;;;7.40;99.90;;;;;;5072256;28;20111;-59
2022/03/18 09:01:08;;;;;;;46.00;30.52;;;7.40;99.90;;;;;;5072369;28;20454;-58
2022/03/18 09:03:33;;;;;;;47.35;29.85;;;7.50;99.90;;;;;;5072188;28;20120;-59
2022/03/18 09:06:00;;;;;;;47.85;30.00;;;7.70;99.90;;;;;;5072147;28;20064;-58
2022/03/18 09:08:26;;;;;;;46.90;32.00;;;8.00;99.90;;;;;;5070179;28;20499;-59
2022/03/18 09:10:51;;;;;;;45.53;31.50;;;7.90;99.90;;;;;;5071966;28;20032;-59
2022/03/18 09:13:17;;;;;;;43.97;32.05;;;7.80;99.90;;;;;;5071775;28;20614;-57
2022/03/18 09:15:43;;;;;;;48.22;32.75;;;8.00;99.90;;;;;;5071909;28;20017;-58
2022/03/18 09:18:10;;;;;;;43.42;30.92;;;8.20;99.90;;;;;;5071865;28;20024;-58
2022/03/18 09:20:35;;;;;;;49.13;30.13;;;8.30;99.90;;;;;;5071412;28;20667;-58
2022/03/18 09:23:03;;;;;;;44.47;32.70;;;8.60;99.90;;;;;;5071769;28;20098;-58
2022/03/18 09:25:28;;;;;;;46.45;32.30;;;8.60;99.90;;;;;;5071831;28;20028;-59
2022/03/18 09:27:54;;;;;;;51.70;32.42;;;8.60;99.90;;;;;;5071744;28;20047;-56
2022/03/18 09:30:19;;;;;;;56.75;33.28;;;8.50;99.90;;;;;;5071970;28;20036;-59
2022/03/18 09:32:45;;;;;;;52.03;32.72;;;8.60;99.90;;;;;;5070390;28;20041;-59
2022/03/18 09:35:14;;;;;;;47.17;31.50;;;8.60;99.90;;;;;;5071828;28;20052;-58
2022/03/18 09:37:40;;;;;;;44.42;31.40;;;8.80;99.90;;;;;;5071589;28;20452;-58
2022/03/18 09:40:08;;;;;;;44.85;30.00;;;8.70;99.90;;;;;;5071773;28;20035;-59
2022/03/18 09:42:35;;;;;;;44.92;29.70;;;8.80;99.90;;;;;;5071578;28;20108;-58
2022/03/18 09:45:00;;;;;;;48.08;29.08;;;9.10;99.40;;;;;;5071497;28;20096;-58
2022/03/18 09:47:28;;;;;;;41.28;29.67;;;9.20;99.20;;;;;;5071651;28;20551;-58
2022/03/18 09:49:53;;;;;;;43.03;29.42;;;9.00;98.20;;;;;;5071575;28;20029;-59
2022/03/18 09:52:20;;;;;;;50.95;29.67;;;8.80;99.00;;;;;;5071519;28;20028;-59
2022/03/18 09:54:46;;;;;;;48.50;31.58;;;8.80;98.80;;;;;;5071464;28;20016;-58
2022/03/18 09:57:13;;;;;;;42.85;30.38;;;8.60;98.80;;;;;;5071618;28;20033;-58
2022/03/18 09:59:38;;;;;;;45.70;30.08;;;8.80;99.40;;;;;;5071450;28;20024;-59
2022/03/18 10:02:39;;;;;;;39.50;27.73;;;9.00;98.90;;;;;;5071538;28;20368;-57
2022/03/18 10:05:13;;;;;;;40.15;28.52;;;9.40;97.20;;;;;;5068948;28;20036;-58
2022/03/18 10:07:39;;;;;;;45.13;30.00;;;9.10;97.30;;;;;;5071041;28;20043;-59
2022/03/18 10:10:15;;;;;;;77.72;47.95;;;9.10;98.00;;;;;;5071434;28;20029;-58
2022/03/18 10:12:44;;;;;;;41.70;30.23;;;9.50;98.10;;;;;;5069859;28;20034;-58
2022/03/18 10:15:22;;;;;;;44.10;31.40;;;9.40;98.40;;;;;;5071421;28;20124;-59
2022/03/18 10:17:54;;;;;;;41.60;30.13;;;9.50;98.00;;;;;;5070457;28;20040;-57
2022/03/18 10:20:37;;;;;;;38.08;28.67;;;9.90;98.10;;;;;;5070421;28;20406;-59
2022/03/18 10:23:14;;;;;;;49.78;28.50;;;9.90;96.60;;;;;;5073953;28;20032;-59
2022/03/18 10:25:52;;;;;;;40.95;29.17;;;10.30;97.30;;;;;;5075282;28;20055;-58
2022/03/18 10:28:37;;;;;;;58.58;30.65;;;10.50;95.90;;;;;;5074447;28;20025;-59
2022/03/18 10:31:11;;;;;;;40.83;30.85;;;10.30;95.10;;;;;;5075368;28;20425;-59
2022/03/18 10:37:09;;;;;;;42.30;30.25;;;10.50;95.70;;;;;;5074353;28;20101;-59
2022/03/18 10:39:37;;;;;;;46.05;31.13;;;10.40;95.70;;;;;;5075015;28;20036;-59
2022/03/18 10:42:09;;;;;;;48.45;31.65;;;10.30;95.60;;;;;;5073727;28;20029;-59
2022/03/18 10:44:47;;;;;;;42.10;30.35;;;10.50;96.00;;;;;;5074997;28;20558;-59
2022/03/18 10:47:46;;;;;;;44.88;31.02;;;10.60;94.90;;;;;;5074963;28;20086;-59
2022/03/18 10:50:11;;;;;;;42.08;30.05;;;10.70;95.10;;;;;;5074679;28;20020;-59
2022/03/18 10:52:49;;;;;;;40.88;27.35;;;10.80;95.20;;;;;;5074668;28;20106;-59
2022/03/18 10:55:19;;;;;;;39.45;29.98;;;10.90;94.70;;;;;;5074706;28;20037;-59
2022/03/18 10:58:17;;;;;;;41.25;28.63;;;10.80;94.30;;;;;;5074575;28;20111;-59
2022/03/18 11:00:45;;;;;;;39.17;28.83;;;11.40;93.90;;;;;;5074249;28;20487;-59
2022/03/18 11:03:13;;;;;;;37.60;28.55;;;11.40;93.60;;;;;;5074533;28;20043;-59
2022/03/18 11:05:45;;;;;;;44.63;30.95;;;11.80;91.90;;;;;;5074353;28;20021;-59
2022/03/18 11:08:21;;;;;;;43.17;30.90;;;11.90;91.80;;;;;;5074630;28;20077;-59
2022/03/18 11:11:14;;;;;;;39.97;29.50;;;12.00;90.70;;;;;;5074370;28;20048;-59
2022/03/18 11:13:53;;;;;;;38.10;27.00;;;12.40;91.20;;;;;;5073549;28;20044;-59
2022/03/18 11:16:25;;;;;;;44.25;28.10;;;13.20;87.90;;;;;;5073129;28;20546;-59
2022/03/18 11:18:52;;;;;;;36.55;27.02;;;13.20;86.00;;;;;;5072888;28;20032;-59
2022/03/18 11:21:21;;;;;;;36.80;26.33;;;13.90;83.40;;;;;;5073130;28;20024;-59
2022/03/18 11:23:47;;;;;;;38.63;27.85;;;13.60;80.10;;;;;;5072802;28;20032;-59
2022/03/18 11:26:16;;;;;;;47.75;26.77;;;13.50;80.50;;;;;;5073041;28;20103;-59
2022/03/18 11:28:42;;;;;;;40.42;26.98;;;13.40;79.90;;;;;;5072964;28;20124;-59
2022/03/18 11:31:18;;;;;;;39.22;28.92;;;13.00;80.30;;;;;;5072499;28;20054;-59
2022/03/18 11:34:11;;;;;;;41.17;29.08;;;12.60;81.10;;;;;;5072690;28;20052;-59
2022/03/18 11:36:43;;;;;;;40.33;28.55;;;12.70;81.70;;;;;;5071468;28;20060;-59
2022/03/18 11:39:09;;;;;;;40.13;29.13;;;12.80;83.70;;;;;;5072792;28;20074;-59
2022/03/18 11:41:53;;;;;;;39.03;27.65;;;12.10;81.90;;;;;;5072658;28;20029;-59
2022/03/18 11:44:42;;;;;;;39.17;28.50;;;11.80;85.30;;;;;;5072743;28;20021;-59
2022/03/18 11:47:20;;;;;;;42.08;29.48;;;12.10;84.80;;;;;;5072743;28;20032;-59
2022/03/18 11:49:47;;;;;;;40.85;28.42;;;12.70;85.20;;;;;;5072635;28;20055;-59
2022/03/18 11:52:12;;;;;;;36.92;28.05;;;13.80;84.50;;;;;;5072703;28;20095;-59
2022/03/18 11:55:08;;;;;;;38.13;28.42;;;14.60;79.50;;;;;;5072605;28;20548;-59
2022/03/18 11:57:42;;;;;;;41.25;29.30;;;14.30;77.40;;;;;;5071903;28;20032;-59
2022/03/18 12:00:28;;;;;;;;;;;14.60;77.00;;;;;;5073082;28;20021;-59
2022/03/18 12:02:53;;;;;;;39.92;28.73;;;14.10;76.90;;;;;;5071824;28;20259;-59
2022/03/18 12:05:20;;;;;;;36.53;27.30;;;13.80;77.60;;;;;;5071844;28;20032;-59
2022/03/18 12:07:52;;;;;;;39.65;28.85;;;14.00;78.30;;;;;;5071647;28;20078;-59
2022/03/18 12:10:33;;;;;;;35.92;27.17;;;14.10;77.70;;;;;;5072345;28;20052;-59
2022/03/18 12:13:02;;;;;;;37.28;28.58;;;14.50;76.60;;;;;;5030683;28;1153996;-59
2022/03/18 12:15:29;;;;;;;40.40;28.98;;;14.40;75.00;;;;;;5072020;28;20062;-59
2022/03/18 12:17:57;;;;;;;47.60;30.60;;;14.00;77.20;;;;;;5056526;28;20500;-59
2022/03/18 12:20:31;;;;;;;40.83;29.27;;;13.40;78.70;;;;;;5052872;28;20115;-59
2022/03/18 12:23:02;;;;;;;58.33;30.90;;;12.70;79.60;;;;;;5052632;28;20114;-59
2022/03/18 12:25:28;;;;;;;42.13;30.02;;;12.20;82.80;;;;;;5053014;28;20021;-59
2022/03/18 12:27:55;;;;;;;47.10;30.88;;;12.00;81.80;;;;;;5053011;28;20032;-59
2022/03/18 12:30:29;;;;;;;50.70;28.63;;;11.80;83.20;;;;;;5053984;28;20395;-59
2022/03/18 12:33:01;;;;;;;42.45;28.08;;;12.10;81.00;;;;;;5052647;28;20039;-60
2022/03/18 12:35:32;;;;;;;44.40;26.95;;;12.30;82.60;;;;;;5052910;28;20025;-60
2022/03/18 12:38:04;;;;;;;44.97;29.42;;;13.10;80.70;;;;;;5052978;28;20120;-59
2022/03/18 12:40:30;;;;;;;41.92;29.23;;;13.50;77.30;;;;;;5056429;28;20020;-59
2022/03/18 12:42:58;;;;;;;41.10;28.38;;;13.50;77.30;;;;;;5066599;28;20059;-60
2022/03/18 12:45:32;;;;;;;46.55;29.25;;;13.70;77.40;;;;;;5072492;28;20102;-59
2022/03/18 12:48:19;;;;;;;35.50;27.05;;;13.60;76.90;;;;;;5070724;28;20040;-60
2022/03/18 12:50:56;;;;;;;41.90;27.05;;;13.50;78.00;;;;;;5071823;28;20067;-59
2022/03/18 12:53:33;;;;;;;36.42;27.48;;;13.50;77.60;;;;;;5061163;28;20107;-60
2022/03/18 12:56:00;;;;;;;46.15;27.08;;;13.70;78.10;;;;;;5052395;28;20533;-60